createdAt,value
2018-03-21T00:02:23.384Z,84.05
2018-03-21T00:04:51.733Z,84.12
2018-03-21T00:07:20.103Z,84.12
2018-03-21T00:09:48.423Z,84.24
2018-03-21T00:12:16.797Z,84.41
2018-03-21T00:14:45.148Z,84.82
2018-03-21T00:17:13.656Z,85.15
2018-03-21T00:19:42.039Z,84.83
2018-03-21T00:22:10.361Z,84.35
2018-03-21T00:24:38.742Z,84.32
2018-03-21T00:27:07.120Z,84.08
2018-03-21T00:29:35.463Z,83.86
2018-03-21T00:32:03.796Z,83.87
2018-03-21T00:34:32.944Z,84.23
2018-03-21T00:37:01.271Z,84.42
2018-03-21T00:39:29.602Z,84.33
2018-03-21T00:41:57.967Z,84.45
2018-03-21T00:44:26.294Z,84.08
2018-03-21T00:46:55.309Z,83.30
2018-03-21T00:49:23.774Z,83.80
2018-03-21T00:51:52.106Z,84.22
2018-03-21T00:54:20.426Z,83.80
2018-03-21T00:56:50.768Z,83.84
2018-03-21T00:59:19.093Z,83.82
2018-03-21T01:01:47.443Z,84.45
2018-03-21T01:04:15.756Z,85.12
2018-03-21T01:06:44.073Z,85.39
2018-03-21T01:09:12.449Z,85.53
2018-03-21T01:11:40.776Z,85.65
2018-03-21T01:14:09.101Z,85.82
2018-03-21T01:16:38.245Z,85.14
2018-03-21T01:19:06.572Z,85.42
2018-03-21T01:21:34.908Z,85.27
2018-03-21T01:24:04.180Z,85.07
2018-03-21T01:26:32.495Z,84.80
2018-03-21T01:29:00.998Z,85.00
2018-03-21T01:31:29.360Z,85.07
2018-03-21T01:33:58.196Z,85.03
2018-03-21T01:36:26.582Z,84.72
2018-03-21T01:38:55.673Z,84.06
2018-03-21T01:41:24.816Z,84.53
2018-03-21T01:43:53.161Z,84.93
2018-03-21T01:46:21.501Z,84.92
2018-03-21T01:48:50.111Z,84.74
2018-03-21T01:51:18.469Z,84.27
2018-03-21T01:53:47.586Z,84.17
2018-03-21T01:56:16.745Z,84.31
2018-03-21T01:58:45.134Z,84.53
2018-03-21T02:01:13.513Z,84.99
2018-03-21T02:03:41.848Z,85.87
2018-03-21T02:06:10.176Z,85.44
2018-03-21T02:08:38.593Z,85.59
2018-03-21T02:11:07.234Z,85.72
2018-03-21T02:13:35.572Z,85.74
2018-03-21T02:16:03.902Z,85.35
2018-03-21T02:18:33.385Z,85.75
2018-03-21T02:21:01.713Z,85.62
2018-03-21T02:23:30.058Z,85.83
2018-03-21T02:26:01.772Z,85.86
2018-03-21T02:28:30.098Z,85.34
2018-03-21T02:30:58.429Z,85.32
2018-03-21T02:33:27.126Z,85.38
2018-03-21T02:35:55.604Z,85.22
2018-03-21T02:38:24.122Z,85.26
2018-03-21T02:40:53.300Z,85.34
2018-03-21T02:43:21.632Z,85.27
2018-03-21T02:45:49.989Z,85.59
2018-03-21T02:48:19.189Z,86.16
2018-03-21T02:50:47.524Z,86.33
2018-03-21T02:53:15.901Z,86.69
2018-03-21T02:55:44.245Z,87.09
2018-03-21T02:58:12.560Z,87.00
2018-03-21T03:00:41.016Z,87.10
2018-03-21T03:03:09.340Z,87.39
2018-03-21T03:05:37.700Z,87.64
2018-03-21T03:08:06.487Z,87.90
2018-03-21T03:10:35.412Z,87.71
2018-03-21T03:13:03.734Z,87.68
2018-03-21T03:15:32.071Z,87.88
2018-03-21T03:18:00.579Z,87.92
2018-03-21T03:20:29.080Z,87.60
2018-03-21T03:22:57.611Z,87.63
2018-03-21T03:25:26.000Z,87.67
2018-03-21T03:27:54.329Z,88.00
2018-03-21T03:30:22.685Z,88.39
2018-03-21T03:32:51.016Z,88.94
2018-03-21T03:35:19.360Z,88.67
2018-03-21T03:37:47.680Z,88.42
2018-03-21T03:40:16.808Z,88.13
2018-03-21T03:42:45.129Z,88.57
2018-03-21T03:45:13.913Z,88.54
2018-03-21T03:47:42.236Z,89.07
2018-03-21T03:50:11.342Z,89.04
2018-03-21T03:52:39.696Z,89.12
2018-03-21T03:55:08.474Z,89.38
2018-03-21T03:57:36.879Z,89.43
2018-03-21T04:00:05.923Z,89.58
2018-03-21T04:02:34.423Z,89.93
2018-03-21T04:05:02.951Z,89.99
2018-03-21T04:07:31.392Z,90.24
2018-03-21T04:10:00.209Z,89.84
2018-03-21T04:12:29.096Z,90.05
2018-03-21T04:14:58.221Z,90.18
2018-03-21T04:17:26.942Z,90.29
2018-03-21T04:19:55.301Z,90.68
2018-03-21T04:22:23.779Z,90.92
2018-03-21T04:24:52.105Z,90.87
2018-03-21T04:27:21.216Z,90.78
2018-03-21T04:29:50.302Z,90.85
2018-03-21T04:32:19.431Z,90.97
2018-03-21T04:34:47.750Z,90.94
2018-03-21T04:37:16.116Z,91.34
2018-03-21T04:39:44.455Z,91.54
2018-03-21T04:42:13.240Z,91.64
2018-03-21T04:44:41.586Z,91.67
2018-03-21T04:47:11.061Z,91.71
2018-03-21T04:49:39.564Z,91.79
2018-03-21T04:52:08.511Z,91.49
2018-03-21T04:54:37.616Z,91.57
2018-03-21T04:57:05.996Z,91.61
2018-03-21T04:59:34.321Z,91.39
2018-03-21T05:02:02.643Z,91.07
2018-03-21T05:04:30.984Z,90.76
2018-03-21T05:06:59.310Z,90.37
2018-03-21T05:09:28.031Z,90.41
2018-03-21T05:11:56.348Z,90.44
2018-03-21T05:14:24.527Z,90.58
2018-03-21T05:16:52.904Z,90.43
2018-03-21T05:19:21.282Z,90.33
2018-03-21T05:21:49.608Z,90.21
2018-03-21T05:24:18.170Z,90.11
2018-03-21T05:26:46.464Z,90.56
2018-03-21T05:29:15.417Z,90.84
2018-03-21T05:31:43.779Z,90.73
2018-03-21T05:34:12.861Z,90.80
2018-03-21T05:36:41.943Z,91.24
2018-03-21T05:39:10.972Z,91.77
2018-03-21T05:41:39.288Z,91.85
2018-03-21T05:44:07.604Z,91.96
2018-03-21T05:46:37.221Z,92.44
2018-03-21T05:49:05.589Z,92.16
2018-03-21T05:51:33.908Z,91.91
2018-03-21T05:54:02.333Z,91.94
2018-03-21T05:56:32.365Z,91.94
2018-03-21T05:59:01.287Z,92.37
2018-03-21T06:01:33.011Z,92.42
2018-03-21T06:04:01.362Z,92.53
2018-03-21T06:06:30.284Z,92.75
2018-03-21T06:08:58.608Z,92.78
2018-03-21T06:11:26.934Z,92.51
2018-03-21T06:13:55.294Z,92.42
2018-03-21T06:16:23.788Z,92.28
2018-03-21T06:18:52.129Z,92.12
2018-03-21T06:21:20.479Z,93.33
2018-03-21T06:23:48.899Z,92.68
2018-03-21T06:26:17.254Z,84.11
2018-03-21T06:28:45.573Z,79.43
2018-03-21T06:31:13.925Z,78.62
2018-03-21T06:33:42.327Z,73.72
2018-03-21T06:36:10.652Z,72.42
2018-03-21T06:38:38.972Z,70.83
2018-03-21T06:41:07.896Z,70.83
2018-03-21T06:43:36.984Z,71.52
2018-03-21T06:46:05.292Z,68.79
2018-03-21T06:48:34.613Z,68.25
2018-03-21T06:51:03.011Z,66.44
2018-03-21T06:53:32.051Z,68.50
2018-03-21T06:56:01.176Z,72.10
2018-03-21T06:58:29.740Z,73.93
2018-03-21T07:00:58.065Z,72.22
2018-03-21T07:03:26.473Z,69.63
2018-03-21T07:05:54.928Z,68.55
2018-03-21T07:08:23.240Z,65.04
2018-03-21T07:10:51.587Z,60.64
2018-03-21T07:13:19.896Z,54.17
2018-03-21T07:16:08.932Z,52.81
2018-03-21T07:18:37.242Z,46.58
2018-03-21T07:21:05.552Z,46.68
2018-03-21T07:23:33.895Z,44.54
2018-03-21T07:26:02.264Z,46.65
2018-03-21T07:28:30.592Z,49.54
2018-03-21T07:30:59.076Z,48.44
2018-03-21T07:33:28.293Z,44.88
2018-03-21T07:35:56.624Z,42.36
2018-03-21T07:38:25.292Z,42.03
2018-03-21T07:40:53.627Z,40.63
2018-03-21T07:43:21.936Z,40.36
2018-03-21T07:45:50.755Z,42.74
2018-03-21T07:48:19.061Z,40.44
2018-03-21T07:50:47.410Z,41.65
2018-03-21T07:53:16.521Z,41.42
2018-03-21T07:55:45.680Z,36.52
2018-03-21T07:58:15.475Z,34.23
2018-03-21T08:00:43.800Z,33.88
2018-03-21T08:03:12.838Z,32.03
2018-03-21T08:05:41.903Z,29.57
2018-03-21T08:08:10.223Z,30.33
2018-03-21T08:10:38.573Z,31.60
2018-03-21T08:13:07.217Z,38.13
2018-03-21T08:15:36.683Z,36.82
2018-03-21T08:18:05.116Z,34.79
2018-03-21T08:20:33.415Z,38.88
2018-03-21T08:23:01.728Z,34.98
2018-03-21T08:25:30.089Z,34.57
2018-03-21T08:28:01.297Z,33.31
2018-03-21T08:30:29.636Z,36.16
2018-03-21T08:32:57.992Z,35.12
2018-03-21T08:35:26.304Z,36.36
2018-03-21T08:37:54.624Z,34.47
2018-03-21T08:40:23.348Z,34.40
2018-03-21T08:42:51.656Z,36.39
2018-03-21T08:45:19.963Z,36.81
2018-03-21T08:47:48.324Z,37.23
2018-03-21T08:50:16.636Z,40.18
2018-03-21T08:52:45.856Z,44.85
2018-03-21T08:55:14.198Z,42.91
2018-03-21T08:57:42.523Z,45.44
2018-03-21T09:00:10.890Z,45.81
2018-03-21T09:02:39.447Z,45.10
2018-03-21T09:05:07.787Z,47.51
2018-03-21T09:07:36.316Z,46.31
2018-03-21T09:10:04.619Z,46.86
2018-03-21T09:12:32.938Z,50.22
2018-03-21T09:15:03.528Z,44.00
2018-03-21T09:17:32.014Z,43.79
2018-03-21T09:20:01.119Z,44.26
2018-03-21T09:22:30.537Z,43.97
2018-03-21T09:24:59.901Z,44.27
2018-03-21T09:27:28.330Z,45.69
2018-03-21T09:29:57.231Z,46.73
2018-03-21T09:32:25.552Z,42.76
2018-03-21T09:34:53.851Z,36.58
2018-03-21T09:37:23.328Z,33.48
2018-03-21T09:39:51.600Z,31.92
2018-03-21T09:42:19.934Z,29.20
2018-03-21T09:44:48.303Z,27.75
2018-03-21T09:47:17.088Z,28.10
2018-03-21T09:49:45.458Z,28.08
2018-03-21T09:52:14.044Z,27.30
2018-03-21T09:54:43.115Z,26.37
2018-03-21T09:57:11.700Z,28.04
2018-03-21T09:59:40.500Z,27.72
2018-03-21T10:02:08.829Z,27.81
2018-03-21T10:04:37.563Z,32.17
2018-03-21T10:07:05.880Z,32.23
2018-03-21T10:09:34.728Z,35.88
2018-03-21T10:12:03.092Z,36.46
2018-03-21T10:14:31.392Z,35.59
2018-03-21T10:16:59.696Z,30.58
2018-03-21T10:19:31.100Z,25.68
2018-03-21T10:21:59.282Z,24.47
2018-03-21T10:24:27.380Z,24.77
2018-03-21T10:26:55.692Z,26.38
2018-03-21T10:29:25.176Z,29.71
2018-03-21T10:31:53.479Z,37.00
2018-03-21T10:34:22.266Z,33.87
2018-03-21T10:36:51.496Z,26.89
2018-03-21T10:39:20.596Z,26.59
2018-03-21T10:41:48.827Z,23.54
2018-03-21T10:44:17.164Z,21.70
2018-03-21T10:46:45.966Z,22.54
2018-03-21T10:49:14.430Z,24.08
2018-03-21T10:51:43.478Z,25.65
2018-03-21T10:54:11.911Z,21.48
2018-03-21T10:56:41.147Z,20.99
2018-03-21T10:59:09.989Z,19.38
2018-03-21T11:01:40.676Z,18.53
2018-03-21T11:04:09.045Z,19.56
2018-03-21T11:06:39.829Z,24.90
2018-03-21T11:09:08.025Z,27.77
2018-03-21T11:11:37.922Z,23.84
2018-03-21T11:14:06.399Z,20.83
2018-03-21T11:16:35.194Z,21.19
2018-03-21T11:19:03.535Z,22.30
2018-03-21T11:21:31.845Z,22.18
2018-03-21T11:24:00.214Z,27.21
2018-03-21T11:26:29.027Z,29.81
2018-03-21T11:28:57.449Z,24.01
2018-03-21T11:31:25.820Z,27.86
2018-03-21T11:33:55.224Z,29.58
2018-03-21T11:36:23.531Z,28.60
2018-03-21T11:38:51.868Z,25.99
2018-03-21T11:41:20.790Z,22.14
2018-03-21T11:43:49.187Z,19.19
2018-03-21T11:46:17.547Z,20.52
2018-03-21T11:48:45.852Z,17.22
2018-03-21T11:51:15.697Z,16.18
2018-03-21T11:53:44.080Z,19.98
2018-03-21T11:56:12.421Z,22.87
2018-03-21T11:58:41.933Z,21.38
2018-03-21T12:01:10.928Z,27.41
2018-03-21T12:03:39.892Z,29.48
2018-03-21T12:06:08.212Z,25.87
2018-03-21T12:08:37.425Z,25.79
2018-03-21T12:11:06.345Z,26.27
2018-03-21T12:13:35.496Z,23.97
2018-03-21T12:16:03.972Z,22.12
2018-03-21T12:18:32.952Z,22.54
2018-03-21T12:21:01.743Z,22.83
2018-03-21T12:23:32.832Z,20.94
2018-03-21T12:26:01.215Z,18.61
2018-03-21T12:28:29.523Z,17.69
2018-03-21T12:30:58.428Z,16.75
2018-03-21T12:33:27.388Z,16.69
2018-03-21T12:35:56.525Z,23.25
2018-03-21T12:38:25.911Z,21.61
2018-03-21T12:40:54.820Z,17.80
2018-03-21T12:43:23.615Z,15.83
2018-03-21T12:45:52.997Z,15.81
2018-03-21T12:48:22.645Z,17.75
2018-03-21T12:50:51.220Z,18.61
2018-03-21T12:53:19.597Z,19.22
2018-03-21T12:55:48.708Z,22.11
2018-03-21T12:58:17.056Z,24.92
2018-03-21T13:00:46.771Z,27.44
2018-03-21T13:03:15.735Z,30.66
2018-03-21T13:05:44.816Z,32.77
2018-03-21T13:08:13.172Z,31.00
2018-03-21T13:10:42.101Z,33.32
2018-03-21T13:13:10.413Z,32.00
2018-03-21T13:15:39.249Z,31.43
2018-03-21T13:18:08.764Z,32.33
2018-03-21T13:20:37.252Z,31.03
2018-03-21T13:23:06.277Z,30.19
2018-03-21T13:25:34.509Z,32.08
2018-03-21T13:28:02.808Z,29.59
2018-03-21T13:30:31.673Z,28.78
2018-03-21T13:33:00.040Z,30.13
2018-03-21T13:35:28.624Z,25.86
2018-03-21T13:37:57.770Z,20.74
2018-03-21T13:40:28.076Z,22.90
2018-03-21T13:42:56.435Z,20.30
2018-03-21T13:45:24.672Z,22.34
2018-03-21T13:47:54.579Z,25.27
2018-03-21T13:50:22.920Z,24.46
2018-03-21T13:52:51.227Z,20.92
2018-03-21T13:55:20.272Z,18.80
2018-03-21T13:57:50.272Z,16.21
2018-03-21T14:00:18.557Z,16.00
2018-03-21T14:02:47.172Z,16.72
2018-03-21T14:05:15.583Z,17.28
2018-03-21T14:07:45.177Z,16.34
2018-03-21T14:10:15.073Z,16.48
2018-03-21T14:12:43.377Z,16.49
2018-03-21T14:15:12.652Z,16.89
2018-03-21T14:17:42.000Z,18.07
2018-03-21T14:20:11.150Z,20.36
2018-03-21T14:22:39.919Z,23.95
2018-03-21T14:25:08.517Z,20.89
2018-03-21T14:27:36.897Z,23.70
2018-03-21T14:30:05.248Z,27.20
2018-03-21T14:32:33.520Z,26.22
2018-03-21T14:35:01.884Z,28.71
2018-03-21T14:37:30.237Z,30.99
2018-03-21T14:39:58.877Z,31.35
2018-03-21T14:42:27.177Z,30.49
2018-03-21T14:44:55.691Z,30.97
2018-03-21T14:47:24.823Z,32.25
2018-03-21T14:49:53.856Z,31.73
2018-03-21T14:52:22.470Z,31.84
2018-03-21T14:54:51.543Z,34.76
2018-03-21T14:57:19.887Z,35.51
2018-03-21T14:59:48.706Z,35.56
2018-03-21T15:02:17.008Z,35.13
2018-03-21T15:04:45.496Z,34.76
2018-03-21T15:07:14.560Z,33.72
2018-03-21T15:09:43.964Z,34.24
2018-03-21T15:12:12.274Z,34.30
2018-03-21T15:14:40.615Z,33.81
2018-03-21T15:17:09.161Z,33.66
2018-03-21T15:19:37.932Z,32.30
2018-03-21T15:22:06.240Z,32.24
2018-03-21T15:24:34.599Z,30.39
2018-03-21T15:27:03.101Z,29.18
2018-03-21T15:29:32.020Z,29.18
2018-03-21T15:32:00.336Z,31.04
2018-03-21T15:34:28.744Z,32.18
2018-03-21T15:36:56.871Z,32.83
2018-03-21T15:39:27.444Z,32.35
2018-03-21T15:41:56.489Z,32.03
2018-03-21T15:44:25.618Z,31.85
2018-03-21T15:46:54.027Z,31.99
2018-03-21T15:49:22.388Z,32.23
2018-03-21T15:51:51.419Z,32.72
2018-03-21T15:54:20.212Z,32.57
2018-03-21T15:56:49.007Z,34.29
2018-03-21T15:59:17.204Z,34.02
2018-03-21T16:01:45.922Z,33.48
2018-03-21T16:04:15.061Z,33.41
2018-03-21T16:06:43.363Z,33.47
2018-03-21T16:09:11.729Z,32.41
2018-03-21T16:11:40.239Z,32.88
2018-03-21T16:14:09.603Z,32.74
2018-03-21T16:16:40.290Z,31.74
2018-03-21T16:19:09.903Z,32.77
2018-03-21T16:21:38.276Z,33.32
2018-03-21T16:24:06.912Z,33.12
2018-03-21T16:26:37.016Z,33.02
2018-03-21T16:29:05.543Z,33.15
2018-03-21T16:31:33.852Z,34.01
2018-03-21T16:34:03.475Z,34.22
2018-03-21T16:36:31.780Z,33.27
2018-03-21T16:39:00.968Z,33.01
2018-03-21T16:41:29.964Z,33.43
2018-03-21T16:43:59.192Z,33.73
2018-03-21T16:46:27.960Z,34.40
2018-03-21T16:49:00.632Z,33.96
2018-03-21T16:51:29.738Z,33.81
2018-03-21T16:53:58.208Z,34.56
2018-03-21T16:56:26.548Z,34.64
2018-03-21T16:58:55.461Z,34.42
2018-03-21T17:01:23.907Z,34.44
2018-03-21T17:03:52.204Z,34.95
2018-03-21T17:06:20.517Z,34.78
2018-03-21T17:08:49.629Z,34.55
2018-03-21T17:11:18.696Z,33.85
2018-03-21T17:13:47.053Z,34.65
2018-03-21T17:16:15.855Z,35.06
2018-03-21T17:18:44.199Z,34.93
2018-03-21T17:21:13.136Z,35.64
2018-03-21T17:23:41.445Z,35.82
2018-03-21T17:26:09.751Z,36.11
2018-03-21T17:28:38.092Z,35.70
2018-03-21T17:31:06.392Z,35.28
2018-03-21T17:33:34.708Z,36.17
2018-03-21T17:36:03.092Z,36.67
2018-03-21T17:38:31.432Z,36.37
2018-03-21T17:40:59.732Z,36.90
2018-03-21T17:43:28.085Z,35.97
2018-03-21T17:45:56.404Z,36.39
2018-03-21T17:48:24.908Z,37.52
2018-03-21T17:50:53.267Z,37.02
2018-03-21T17:53:21.591Z,37.41
2018-03-21T17:55:54.560Z,37.86
2018-03-21T17:58:23.893Z,37.98
2018-03-21T18:00:53.072Z,37.83
2018-03-21T18:03:21.556Z,38.35
2018-03-21T18:05:50.620Z,37.73
2018-03-21T18:08:20.344Z,38.06
2018-03-21T18:10:48.675Z,39.11
2018-03-21T18:13:17.412Z,38.11
2018-03-21T18:15:45.779Z,40.03
2018-03-21T18:18:14.771Z,40.24
2018-03-21T18:20:43.309Z,41.13
2018-03-21T18:23:15.504Z,41.85
2018-03-21T18:25:43.953Z,43.85
2018-03-21T18:28:12.268Z,44.58
2018-03-21T18:30:41.018Z,44.34
2018-03-21T18:33:09.359Z,45.45
2018-03-21T18:35:37.681Z,41.30
2018-03-21T18:38:06.364Z,41.94
2018-03-21T18:40:35.484Z,41.73
2018-03-21T18:43:03.801Z,43.13
2018-03-21T18:45:32.135Z,43.94
2018-03-21T18:48:01.992Z,46.00
2018-03-21T18:50:30.384Z,44.34
2018-03-21T18:52:58.792Z,45.14
2018-03-21T18:55:27.130Z,45.57
2018-03-21T18:57:55.468Z,47.06
2018-03-21T19:00:24.000Z,45.94
2018-03-21T19:02:53.249Z,48.17
2018-03-21T19:05:21.908Z,47.06
2018-03-21T19:07:50.224Z,47.39
2018-03-21T19:10:18.568Z,48.25
2018-03-21T19:12:50.212Z,48.28
2018-03-21T19:15:18.341Z,48.95
2018-03-21T19:17:47.512Z,49.23
2018-03-21T19:20:15.760Z,49.79
2018-03-21T19:22:44.085Z,50.44
2018-03-21T19:25:13.403Z,51.49
2018-03-21T19:27:41.784Z,52.38
2018-03-21T19:30:12.063Z,52.81
2018-03-21T19:32:42.786Z,52.09
2018-03-21T19:35:11.196Z,52.58
2018-03-21T19:37:39.576Z,53.04
2018-03-21T19:40:08.680Z,53.97
2018-03-21T19:42:37.006Z,54.54
2018-03-21T19:45:05.424Z,54.22
2018-03-21T19:47:34.529Z,54.62
2018-03-21T19:50:03.648Z,55.10
2018-03-21T19:52:31.973Z,55.98
2018-03-21T19:55:01.949Z,56.50
2018-03-21T19:57:30.291Z,57.12
2018-03-21T19:59:59.401Z,56.86
2018-03-21T20:02:27.968Z,57.14
2018-03-21T20:04:56.076Z,57.43
2018-03-21T20:07:24.476Z,57.76
2018-03-21T20:09:52.907Z,57.42
2018-03-21T20:12:21.804Z,57.67
2018-03-21T20:14:50.182Z,57.35
2018-03-21T20:17:18.593Z,57.31
2018-03-21T20:19:46.923Z,57.80
2018-03-21T20:22:15.569Z,57.61
2018-03-21T20:24:43.903Z,58.44
2018-03-21T20:27:12.244Z,59.48
2018-03-21T20:29:40.683Z,59.87
2018-03-21T20:32:09.077Z,59.99
2018-03-21T20:34:38.138Z,60.65
2018-03-21T20:37:07.425Z,61.97
2018-03-21T20:39:36.530Z,62.43
2018-03-21T20:42:05.750Z,64.13
2018-03-21T20:44:34.270Z,64.70
2018-03-21T20:47:02.501Z,63.98
2018-03-21T20:49:30.968Z,63.62
2018-03-21T20:51:59.099Z,63.69
2018-03-21T20:54:27.500Z,63.75
2018-03-21T20:56:56.608Z,64.54
2018-03-21T20:59:25.088Z,64.85
2018-03-21T21:01:53.458Z,64.73
2018-03-21T21:04:21.776Z,64.65
2018-03-21T21:06:50.537Z,66.86
2018-03-21T21:09:18.863Z,65.95
2018-03-21T21:11:47.176Z,66.38
2018-03-21T21:14:15.561Z,67.12
2018-03-21T21:16:45.275Z,66.74
2018-03-21T21:19:13.621Z,66.54
2018-03-21T21:21:41.947Z,66.02
2018-03-21T21:24:10.547Z,65.40
2018-03-21T21:26:39.312Z,65.37
2018-03-21T21:29:07.631Z,66.09
2018-03-21T21:31:35.976Z,66.42
2018-03-21T21:34:04.960Z,65.93
2018-03-21T21:36:33.943Z,67.27
2018-03-21T21:39:02.518Z,67.33
2018-03-21T21:41:30.836Z,66.10
2018-03-21T21:43:59.734Z,65.73
2018-03-21T21:46:28.051Z,66.54
2018-03-21T21:48:57.120Z,67.34
2018-03-21T21:51:25.464Z,68.17
2018-03-21T21:53:53.784Z,69.00
2018-03-21T21:56:22.127Z,69.55
2018-03-21T21:58:51.204Z,70.00
2018-03-21T22:01:20.404Z,70.44
2018-03-21T22:03:49.492Z,71.21
2018-03-21T22:06:17.836Z,71.78
2018-03-21T22:08:45.984Z,72.21
2018-03-21T22:11:14.339Z,72.17
2018-03-21T22:13:42.659Z,71.49
2018-03-21T22:16:11.019Z,70.87
2018-03-21T22:18:39.655Z,71.38
2018-03-21T22:21:07.937Z,72.59
2018-03-21T22:23:36.359Z,72.70
2018-03-21T22:26:05.215Z,72.33
2018-03-21T22:28:33.534Z,73.07
2018-03-21T22:31:01.933Z,72.92
2018-03-21T22:33:30.252Z,73.08
2018-03-21T22:35:58.573Z,73.57
2018-03-21T22:38:28.860Z,73.73
2018-03-21T22:40:57.188Z,73.07
2018-03-21T22:43:25.503Z,73.02
2018-03-21T22:45:53.880Z,72.06
2018-03-21T22:48:22.275Z,72.42
2018-03-21T22:50:52.083Z,74.04
2018-03-21T22:53:20.407Z,75.03
2018-03-21T22:55:49.504Z,75.83
2018-03-21T22:58:18.533Z,75.29
2018-03-21T23:00:46.847Z,75.23
2018-03-21T23:03:15.155Z,75.28
2018-03-21T23:05:43.532Z,76.12
2018-03-21T23:08:11.861Z,76.41
2018-03-21T23:10:40.186Z,76.36
2018-03-21T23:13:08.532Z,76.37
2018-03-21T23:15:37.608Z,76.55
2018-03-21T23:18:06.688Z,76.73
2018-03-21T23:20:35.176Z,77.65
2018-03-21T23:23:04.304Z,78.29
2018-03-21T23:25:32.630Z,78.40
2018-03-21T23:28:01.387Z,78.22
2018-03-21T23:30:30.233Z,78.97
2018-03-21T23:32:58.569Z,79.26
2018-03-21T23:35:27.113Z,79.11
2018-03-21T23:37:56.201Z,78.41
2018-03-21T23:40:25.294Z,78.00
2018-03-21T23:42:54.433Z,77.63
2018-03-21T23:45:22.759Z,78.29
2018-03-21T23:47:54.165Z,78.26
2018-03-21T23:50:22.492Z,77.81
2018-03-21T23:52:51.605Z,77.73
2018-03-21T23:55:20.841Z,78.37
2018-03-21T23:57:49.208Z,78.94
